Time;durP1;ratioP1;P1;durP2;ratioP2;P2;SDS_P1;SDS_P2;PMS_P1;PMS_P2;Temp;Humidity;BMP_temperature;BMP_pressure;BME280_temperature;BME280_humidity;BME280_pressure;Samples;Min_cycle;Max_cycle;Signal;HPM_P1;HPM_P2
2021/06/09 00:00:51;;;;;;;16.80;13.07;;;18.90;99.90;;;;;;4191504;28;20206;-75
2021/06/09 00:02:53;;;;;;;17.77;12.80;;;18.90;99.90;;;;;;4189975;28;20664;-74
2021/06/09 00:04:55;;;;;;;16.57;11.67;;;18.90;99.90;;;;;;4186941;28;20308;-74
2021/06/09 00:06:56;;;;;;;16.73;12.17;;;18.90;99.90;;;;;;4196529;28;20225;-75
2021/06/09 00:08:57;;;;;;;14.60;11.40;;;18.90;99.90;;;;;;4195149;28;20213;-75
2021/06/09 00:10:59;;;;;;;14.77;11.53;;;18.90;99.90;;;;;;4182152;28;20219;-74
2021/06/09 00:13:00;;;;;;;14.63;11.63;;;18.90;99.90;;;;;;4187966;28;20209;-74
2021/06/09 00:15:03;;;;;;;16.10;11.60;;;18.90;99.90;;;;;;4178625;28;20230;-74
2021/06/09 00:17:04;;;;;;;15.03;11.77;;;18.90;99.90;;;;;;4182446;28;20229;-74
2021/06/09 00:19:06;;;;;;;16.43;11.80;;;18.90;99.90;;;;;;4179139;28;20217;-75
2021/06/09 00:21:09;;;;;;;14.13;11.80;;;18.90;99.90;;;;;;4187240;28;20580;-74
2021/06/09 00:23:14;;;;;;;14.67;11.23;;;18.90;99.90;;;;;;4191770;28;20225;-74
2021/06/09 00:25:16;;;;;;;15.10;11.20;;;18.80;99.90;;;;;;4195518;28;20867;-75
2021/06/09 00:27:18;;;;;;;14.03;10.97;;;18.90;99.90;;;;;;4196339;28;20241;-75
2021/06/09 00:29:20;;;;;;;14.30;10.90;;;18.90;99.90;;;;;;4194526;28;20202;-75
2021/06/09 00:31:22;;;;;;;13.17;10.73;;;18.80;99.90;;;;;;4189080;28;20214;-74
2021/06/09 00:33:25;;;;;;;13.20;10.23;;;18.90;99.90;;;;;;4187918;28;20224;-74
2021/06/09 00:35:28;;;;;;;14.33;10.47;;;18.80;99.90;;;;;;4189279;22;20270;-73
2021/06/09 00:37:31;;;;;;;12.77;10.63;;;18.90;99.90;;;;;;4154335;28;20554;-73
2021/06/09 00:39:32;;;;;;;13.70;10.33;;;18.90;99.90;;;;;;4146645;28;20220;-73
2021/06/09 00:41:35;;;;;;;13.77;10.27;;;18.90;99.90;;;;;;4146846;28;20732;-73
2021/06/09 00:43:37;;;;;;;13.33;10.57;;;18.90;99.90;;;;;;4147827;28;20624;-72
2021/06/09 00:45:41;;;;;;;12.87;9.90;;;18.90;99.90;;;;;;4158560;28;20235;-72
2021/06/09 00:47:42;;;;;;;12.73;9.70;;;18.90;99.90;;;;;;4159134;28;20239;-73
2021/06/09 00:49:43;;;;;;;12.10;9.70;;;18.90;99.90;;;;;;4162106;28;20223;-73
2021/06/09 00:51:44;;;;;;;11.50;9.10;;;18.90;99.90;;;;;;4162733;28;20238;-73
2021/06/09 00:53:50;;;;;;;12.70;9.83;;;18.90;99.90;;;;;;4162902;28;20211;-73
2021/06/09 00:55:52;;;;;;;13.80;9.40;;;18.90;99.90;;;;;;4162210;28;20208;-73
2021/06/09 00:57:53;;;;;;;12.77;9.00;;;18.90;99.90;;;;;;4155698;28;20215;-73
2021/06/09 00:59:54;;;;;;;11.10;9.00;;;18.90;99.90;;;;;;4145257;28;20211;-73
2021/06/09 01:01:56;;;;;;;11.73;9.17;;;18.80;99.90;;;;;;4157027;28;20211;-73
2021/06/09 01:03:58;;;;;;;10.63;8.93;;;18.90;99.90;;;;;;4156844;28;20229;-73
2021/06/09 01:05:59;;;;;;;11.57;9.03;;;18.90;99.90;;;;;;4155259;28;20207;-73
2021/06/09 01:08:01;;;;;;;10.57;8.80;;;18.90;99.90;;;;;;4162362;28;20233;-73
2021/06/09 01:10:05;;;;;;;12.07;8.73;;;18.90;99.90;;;;;;4162326;28;20227;-73
2021/06/09 01:12:08;;;;;;;12.30;8.77;;;18.90;99.90;;;;;;4163034;28;20264;-73
2021/06/09 01:14:09;;;;;;;10.33;7.90;;;18.80;99.90;;;;;;4156451;28;20976;-73
2021/06/09 01:16:11;;;;;;;9.37;7.60;;;18.80;99.90;;;;;;4148182;28;20208;-73
2021/06/09 01:18:12;;;;;;;9.50;8.20;;;18.80;99.90;;;;;;4146932;28;20211;-73
2021/06/09 01:20:14;;;;;;;9.20;8.10;;;18.80;99.90;;;;;;4145733;28;20222;-73
2021/06/09 01:22:16;;;;;;;8.90;7.70;;;18.80;99.90;;;;;;4157058;28;20208;-73
2021/06/09 01:24:17;;;;;;;9.73;8.10;;;18.80;99.90;;;;;;4151981;28;20289;-73
2021/06/09 01:26:19;;;;;;;10.90;8.23;;;18.80;99.80;;;;;;4162133;28;20684;-73
2021/06/09 01:28:21;;;;;;;9.90;7.80;;;18.80;99.70;;;;;;4162116;28;20217;-72
2021/06/09 01:30:22;;;;;;;11.13;7.83;;;18.80;99.60;;;;;;4153739;28;20235;-72
2021/06/09 01:32:24;;;;;;;9.53;7.87;;;18.80;99.50;;;;;;4158412;28;20219;-72
2021/06/09 01:34:25;;;;;;;9.37;7.70;;;18.80;99.50;;;;;;4153068;28;20721;-73
2021/06/09 01:36:26;;;;;;;11.33;7.60;;;18.80;99.40;;;;;;4155135;28;20204;-72
2021/06/09 01:38:29;;;;;;;9.30;7.13;;;18.80;99.30;;;;;;4158450;28;20208;-72
2021/06/09 01:40:30;;;;;;;9.20;7.73;;;18.80;99.20;;;;;;4151819;28;20234;-73
2021/06/09 01:42:32;;;;;;;8.80;7.60;;;18.80;99.20;;;;;;4155178;28;20208;-73
2021/06/09 01:44:37;;;;;;;8.53;6.73;;;18.80;99.00;;;;;;4150680;28;20235;-74
2021/06/09 01:46:39;;;;;;;9.00;7.53;;;18.80;98.90;;;;;;4155325;28;20235;-73
2021/06/09 01:48:40;;;;;;;10.03;7.47;;;18.80;98.80;;;;;;4150278;28;20270;-72
2021/06/09 01:50:41;;;;;;;8.70;7.00;;;18.80;98.80;;;;;;4156553;28;20203;-73
2021/06/09 01:52:44;;;;;;;9.83;6.80;;;18.80;98.70;;;;;;4160042;28;20277;-72
2021/06/09 01:54:47;;;;;;;8.23;6.90;;;18.80;98.70;;;;;;4153176;28;20231;-72
2021/06/09 01:56:49;;;;;;;8.37;6.80;;;18.70;98.70;;;;;;4153261;28;20215;-73
2021/06/09 01:58:50;;;;;;;7.63;6.60;;;18.80;98.70;;;;;;4159071;28;20219;-73
2021/06/09 02:00:52;;;;;;;10.87;6.67;;;18.70;98.50;;;;;;4164489;28;20215;-73
2021/06/09 02:02:58;;;;;;;7.40;6.60;;;18.70;98.50;;;;;;4164844;28;20221;-73
2021/06/09 02:04:59;;;;;;;8.00;6.57;;;18.70;98.50;;;;;;4160706;28;20240;-73
2021/06/09 02:07:01;;;;;;;8.57;7.10;;;18.70;98.50;;;;;;4154206;28;20227;-73
2021/06/09 02:09:02;;;;;;;8.77;7.20;;;18.70;98.40;;;;;;4151057;28;20210;-73
2021/06/09 02:11:05;;;;;;;9.10;6.67;;;18.70;98.40;;;;;;4163298;28;20568;-72
2021/06/09 02:13:08;;;;;;;7.43;6.63;;;18.70;98.70;;;;;;4155354;28;20234;-73
2021/06/09 02:15:11;;;;;;;8.03;6.40;;;18.70;98.40;;;;;;4153107;28;20235;-73
2021/06/09 02:17:12;;;;;;;7.43;6.07;;;18.70;98.30;;;;;;4161333;28;20573;-72
2021/06/09 02:19:14;;;;;;;7.70;6.67;;;18.70;98.30;;;;;;4165147;28;20226;-73
2021/06/09 02:21:15;;;;;;;7.30;6.27;;;18.60;98.30;;;;;;4163174;28;20253;-73
2021/06/09 02:23:20;;;;;;;9.17;6.77;;;18.70;98.30;;;;;;4165417;28;20678;-73
2021/06/09 02:25:23;;;;;;;7.47;6.43;;;18.70;98.20;;;;;;4158624;28;20239;-73
2021/06/09 02:27:25;;;;;;;7.47;6.30;;;18.70;98.30;;;;;;4148367;28;20369;-73
2021/06/09 02:29:26;;;;;;;8.90;6.53;;;18.70;98.20;;;;;;4148023;28;20574;-73
2021/06/09 02:31:28;;;;;;;8.03;6.70;;;18.70;98.20;;;;;;4156896;28;20211;-73
2021/06/09 02:33:29;;;;;;;9.37;6.83;;;18.60;98.20;;;;;;4164181;28;20595;-73
2021/06/09 02:35:35;;;;;;;7.93;6.53;;;18.70;98.30;;;;;;4164935;28;20249;-73
2021/06/09 02:37:36;;;;;;;7.57;6.07;;;18.70;98.20;;;;;;4163969;28;20424;-73
2021/06/09 02:39:37;;;;;;;7.03;5.80;;;18.60;98.20;;;;;;4163426;28;20245;-72
2021/06/09 02:41:39;;;;;;;7.17;5.97;;;18.60;98.20;;;;;;4163661;28;20920;-72
2021/06/09 02:43:42;;;;;;;7.47;5.90;;;18.70;98.30;;;;;;4164541;28;20258;-73
2021/06/09 02:45:47;;;;;;;8.27;6.27;;;18.60;98.30;;;;;;4148625;28;20215;-73
2021/06/09 02:47:51;;;;;;;7.50;6.37;;;18.60;98.20;;;;;;4153394;28;20231;-73
2021/06/09 02:49:55;;;;;;;9.03;6.63;;;18.60;98.20;;;;;;4155374;28;20208;-73
2021/06/09 02:52:05;;;;;;;8.87;6.30;;;18.60;98.30;;;;;;4158515;28;20655;-73
2021/06/09 02:54:13;;;;;;;7.83;6.07;;;18.60;98.30;;;;;;4164605;28;20234;-73
2021/06/09 02:56:21;;;;;;;8.60;6.27;;;18.50;98.20;;;;;;4156912;28;20222;-73
2021/06/09 02:58:31;;;;;;;9.17;6.53;;;18.50;98.30;;;;;;4162249;28;20226;-73
2021/06/09 03:00:40;;;;;;;9.77;6.47;;;18.50;98.30;;;;;;4162265;28;20210;-73
2021/06/09 03:02:46;;;;;;;8.33;6.23;;;18.50;98.20;;;;;;4159871;28;20224;-73
2021/06/09 03:04:52;;;;;;;8.07;6.03;;;18.50;98.10;;;;;;4162093;28;20290;-73
2021/06/09 03:06:59;;;;;;;8.17;6.37;;;18.50;97.90;;;;;;4164617;28;20273;-74
2021/06/09 03:09:05;;;;;;;9.60;6.50;;;18.50;98.00;;;;;;4164137;28;20215;-73
2021/06/09 03:11:17;;;;;;;7.30;5.80;;;18.50;97.90;;;;;;4159798;28;20215;-73
2021/06/09 03:13:27;;;;;;;7.97;6.20;;;18.50;97.80;;;;;;4164148;28;20210;-73
2021/06/09 03:15:39;;;;;;;7.50;5.87;;;18.50;97.70;;;;;;4159394;28;20250;-73
2021/06/09 03:17:52;;;;;;;7.70;6.43;;;18.50;97.60;;;;;;4163803;28;20210;-73
2021/06/09 03:20:04;;;;;;;6.53;5.63;;;18.50;97.60;;;;;;4162675;28;20215;-73
2021/06/09 03:22:18;;;;;;;8.53;6.07;;;18.50;97.60;;;;;;4163954;28;20241;-73
2021/06/09 03:24:26;;;;;;;8.50;6.50;;;18.50;97.40;;;;;;4155744;28;20687;-74
2021/06/09 03:26:38;;;;;;;9.00;6.43;;;18.50;97.40;;;;;;4149117;28;20218;-73
2021/06/09 03:28:51;;;;;;;7.03;5.87;;;18.60;97.40;;;;;;4147584;28;20277;-73
2021/06/09 03:30:57;;;;;;;7.53;6.10;;;18.60;97.40;;;;;;4159100;28;20212;-73
2021/06/09 03:33:01;;;;;;;7.90;6.10;;;18.50;97.30;;;;;;4159540;28;20207;-73
2021/06/09 03:35:06;;;;;;;8.80;6.00;;;18.60;97.30;;;;;;4147677;28;20749;-73
2021/06/09 03:37:10;;;;;;;6.87;5.50;;;18.60;97.20;;;;;;4151308;28;20203;-73
2021/06/09 03:39:14;;;;;;;6.73;5.70;;;18.60;97.10;;;;;;4163807;28;20246;-74
2021/06/09 03:41:16;;;;;;;8.60;6.17;;;18.60;96.90;;;;;;4163164;28;20215;-74
2021/06/09 03:43:21;;;;;;;7.23;5.80;;;18.60;96.90;;;;;;4159817;28;20265;-73
2021/06/09 03:45:26;;;;;;;8.30;6.00;;;18.60;96.90;;;;;;4162321;28;20235;-74
2021/06/09 03:47:30;;;;;;;8.13;6.00;;;18.60;96.60;;;;;;4163163;28;20223;-74
2021/06/09 03:49:32;;;;;;;8.23;6.57;;;18.60;96.50;;;;;;4159516;28;20210;-73
2021/06/09 03:51:37;;;;;;;7.10;6.17;;;18.60;96.50;;;;;;4162045;28;20230;-74
2021/06/09 03:53:39;;;;;;;7.27;6.23;;;18.60;96.50;;;;;;4157817;28;20207;-73
2021/06/09 03:55:44;;;;;;;7.00;5.93;;;18.60;96.50;;;;;;4163410;28;20231;-74
2021/06/09 03:57:47;;;;;;;6.67;5.50;;;18.60;96.50;;;;;;4162977;28;20203;-73
2021/06/09 03:59:49;;;;;;;8.30;6.00;;;18.60;96.50;;;;;;4163355;28;20219;-74
2021/06/09 04:01:52;;;;;;;8.07;6.87;;;18.60;96.40;;;;;;4156351;28;20218;-74
2021/06/09 04:03:56;;;;;;;8.13;6.00;;;18.60;96.40;;;;;;4163275;28;20255;-73
2021/06/09 04:06:00;;;;;;;7.03;5.63;;;18.60;96.40;;;;;;4163818;28;20218;-74
2021/06/09 04:08:01;;;;;;;10.03;6.50;;;18.50;96.40;;;;;;4162045;28;20608;-73
2021/06/09 04:10:03;;;;;;;7.90;6.00;;;18.60;96.50;;;;;;4157169;28;20238;-73
2021/06/09 04:12:08;;;;;;;7.97;5.83;;;18.60;96.90;;;;;;4162969;28;20265;-72
2021/06/09 04:14:11;;;;;;;7.43;6.03;;;18.60;96.60;;;;;;4162057;28;20234;-73
2021/06/09 04:16:14;;;;;;;7.50;6.20;;;18.50;96.60;;;;;;4163730;28;20214;-73
2021/06/09 04:18:16;;;;;;;7.70;5.83;;;18.50;96.70;;;;;;4161757;28;20286;-73
2021/06/09 04:20:24;;;;;;;7.60;5.93;;;18.50;96.60;;;;;;4157715;28;20204;-73
2021/06/09 04:22:26;;;;;;;6.77;6.00;;;18.50;96.50;;;;;;4162762;28;20244;-73
2021/06/09 04:24:27;;;;;;;8.00;6.03;;;18.50;96.50;;;;;;4162718;28;20238;-72
2021/06/09 04:26:30;;;;;;;8.67;6.10;;;18.60;96.40;;;;;;4162511;28;20627;-72
2021/06/09 04:28:31;;;;;;;7.80;5.93;;;18.50;96.20;;;;;;4161931;28;20242;-74
2021/06/09 04:30:33;;;;;;;7.60;5.70;;;18.60;96.30;;;;;;4162416;28;20218;-73
2021/06/09 04:32:51;;;;;;;7.33;5.63;;;18.60;96.20;;;;;;4162818;28;20215;-73
2021/06/09 04:34:54;;;;;;;8.60;5.97;;;18.60;96.50;;;;;;4162444;28;20292;-73
2021/06/09 04:36:57;;;;;;;7.37;6.03;;;18.60;96.90;;;;;;4154838;28;20756;-73
2021/06/09 04:38:58;;;;;;;8.43;6.00;;;18.60;97.20;;;;;;4157969;28;20634;-74
2021/06/09 04:40:59;;;;;;;11.80;6.10;;;18.60;97.30;;;;;;4161815;28;20207;-74
2021/06/09 04:43:01;;;;;;;8.10;6.10;;;18.70;97.90;;;;;;4162442;28;20219;-75
2021/06/09 04:45:02;;;;;;;8.97;7.00;;;18.70;97.90;;;;;;4162356;28;20639;-74
2021/06/09 04:47:04;;;;;;;7.77;6.40;;;18.60;98.00;;;;;;4158448;28;20273;-74
2021/06/09 04:49:06;;;;;;;7.90;5.73;;;18.70;98.20;;;;;;4163006;28;20218;-74
2021/06/09 04:51:07;;;;;;;8.33;6.67;;;18.60;98.20;;;;;;4162547;28;20211;-74
2021/06/09 04:53:11;;;;;;;9.17;6.10;;;18.60;97.90;;;;;;4162059;28;20554;-74
2021/06/09 04:55:13;;;;;;;9.63;6.67;;;18.70;97.60;;;;;;4160428;28;20234;-73
2021/06/09 04:57:14;;;;;;;7.97;6.13;;;18.60;97.60;;;;;;4153038;28;20206;-73
2021/06/09 04:59:15;;;;;;;8.33;6.50;;;18.60;97.60;;;;;;4165951;28;20686;-75
2021/06/09 05:01:17;;;;;;;8.57;6.80;;;18.60;97.50;;;;;;4161715;28;20214;-73
2021/06/09 05:03:19;;;;;;;8.87;6.80;;;18.60;97.80;;;;;;4157407;28;20208;-74
2021/06/09 05:05:20;;;;;;;8.77;6.63;;;18.60;97.40;;;;;;4159725;28;20230;-74
2021/06/09 05:07:21;;;;;;;8.80;6.93;;;18.60;97.30;;;;;;4162871;28;20237;-77
2021/06/09 05:09:25;;;;;;;9.30;7.33;;;18.60;97.40;;;;;;4159074;28;20207;-79
2021/06/09 05:11:34;;;;;;;10.77;7.30;;;18.60;97.50;;;;;;4163489;28;20214;-74
2021/06/09 05:13:39;;;;;;;7.50;6.30;;;18.60;97.50;;;;;;4159744;28;20555;-74
2021/06/09 05:15:46;;;;;;;7.20;6.07;;;18.60;97.30;;;;;;4159382;28;20231;-74
2021/06/09 05:17:49;;;;;;;7.37;5.90;;;18.70;97.20;;;;;;4159563;28;20562;-74
2021/06/09 05:19:51;;;;;;;7.33;6.03;;;18.70;97.10;;;;;;4161464;28;20653;-74
2021/06/09 05:21:57;;;;;;;7.97;5.83;;;18.70;96.90;;;;;;4162481;28;20205;-74
2021/06/09 05:24:00;;;;;;;9.27;5.90;;;18.70;96.80;;;;;;4159490;28;20207;-74
2021/06/09 05:26:03;;;;;;;10.77;5.97;;;18.80;96.70;;;;;;4159722;28;20207;-75
2021/06/09 05:28:07;;;;;;;8.63;5.80;;;18.80;96.70;;;;;;4150596;28;20224;-74
2021/06/09 05:30:09;;;;;;;8.70;5.80;;;18.80;96.80;;;;;;4151843;28;20214;-74
2021/06/09 05:32:11;;;;;;;8.33;5.83;;;18.80;96.80;;;;;;4160642;28;20210;-74
2021/06/09 05:34:13;;;;;;;8.87;6.20;;;18.90;96.60;;;;;;4151266;28;20662;-72
2021/06/09 05:36:15;;;;;;;7.97;5.80;;;18.90;96.40;;;;;;4161702;28;20669;-75
2021/06/09 05:38:18;;;;;;;7.57;5.83;;;18.90;96.20;;;;;;4165318;28;20203;-74
2021/06/09 05:40:20;;;;;;;11.07;8.47;;;19.00;96.10;;;;;;4164057;28;20218;-73
2021/06/09 05:42:23;;;;;;;24.60;14.43;;;19.10;96.00;;;;;;4140203;28;20217;-75
2021/06/09 05:44:29;;;;;;;15.63;11.17;;;19.20;96.00;;;;;;4154329;28;20235;-74
2021/06/09 05:46:30;;;;;;;12.73;9.00;;;19.20;95.60;;;;;;4159359;28;20217;-75
2021/06/09 05:48:31;;;;;;;11.20;8.27;;;19.30;95.40;;;;;;4155989;28;20232;-75
2021/06/09 05:50:33;;;;;;;8.83;6.97;;;19.40;95.30;;;;;;4155745;28;20223;-75
2021/06/09 05:52:34;;;;;;;10.17;6.80;;;19.50;95.10;;;;;;4155236;28;20634;-75
2021/06/09 05:54:39;;;;;;;10.57;6.13;;;19.60;94.80;;;;;;4152951;28;20625;-75
2021/06/09 05:56:40;;;;;;;7.37;6.00;;;19.60;94.60;;;;;;4159093;28;20228;-78
2021/06/09 05:58:43;;;;;;;24.07;16.07;;;19.70;94.40;;;;;;4157889;28;20264;-77
2021/06/09 06:00:49;;;;;;;36.23;23.27;;;19.70;94.30;;;;;;4158446;28;20215;-77
2021/06/09 06:02:52;;;;;;;23.07;14.77;;;19.80;94.20;;;;;;4159403;28;20209;-76
2021/06/09 06:04:53;;;;;;;14.17;10.07;;;19.90;93.90;;;;;;4157684;28;20237;-76
2021/06/09 06:06:55;;;;;;;11.73;8.10;;;20.00;93.70;;;;;;4149841;28;20216;-76
2021/06/09 06:08:56;;;;;;;10.30;7.10;;;20.00;93.60;;;;;;4147595;28;20219;-78
2021/06/09 06:11:02;;;;;;;8.23;6.17;;;20.00;93.50;;;;;;4157883;28;20888;-76
2021/06/09 06:13:03;;;;;;;11.10;6.30;;;20.10;93.40;;;;;;4152498;28;20222;-76
2021/06/09 06:15:10;;;;;;;7.77;6.40;;;20.20;93.40;;;;;;4151672;28;20737;-75
2021/06/09 06:17:11;;;;;;;6.47;5.27;;;20.20;93.30;;;;;;4148353;28;20209;-76
2021/06/09 06:19:12;;;;;;;6.00;5.10;;;20.30;93.10;;;;;;4147594;28;20218;-76
2021/06/09 06:21:16;;;;;;;7.07;5.30;;;20.30;93.00;;;;;;4158814;28;20226;-77
2021/06/09 06:23:18;;;;;;;8.73;5.60;;;20.30;93.00;;;;;;4159881;28;20224;-77
2021/06/09 06:25:22;;;;;;;7.90;5.50;;;20.40;93.10;;;;;;4159568;28;20225;-75
2021/06/09 06:27:26;;;;;;;7.27;5.90;;;20.30;93.00;;;;;;4149334;28;20239;-77
2021/06/09 06:29:27;;;;;;;6.87;5.83;;;20.30;93.10;;;;;;4145176;28;20749;-77
2021/06/09 06:31:30;;;;;;;7.10;5.73;;;20.30;93.10;;;;;;4157974;28;20221;-77
2021/06/09 06:33:32;;;;;;;8.33;5.93;;;20.40;93.20;;;;;;4157852;28;20213;-76
2021/06/09 06:35:34;;;;;;;6.53;5.33;;;20.40;93.20;;;;;;4158201;28;20247;-76
2021/06/09 06:37:35;;;;;;;6.20;4.90;;;20.40;93.00;;;;;;4155466;28;20218;-76
2021/06/09 06:39:37;;;;;;;5.57;4.70;;;20.40;92.80;;;;;;4156778;28;20208;-77
2021/06/09 06:41:38;;;;;;;6.83;4.70;;;20.40;92.60;;;;;;4157726;28;20211;-76
2021/06/09 06:43:41;;;;;;;7.47;4.87;;;20.40;92.70;;;;;;4154247;28;20652;-76
2021/06/09 06:45:43;;;;;;;5.53;4.57;;;20.50;92.50;;;;;;4150147;28;20224;-76
2021/06/09 06:47:46;;;;;;;6.00;4.20;;;20.50;92.30;;;;;;4151023;28;20252;-76
2021/06/09 06:49:50;;;;;;;7.50;4.67;;;20.50;92.30;;;;;;4150707;28;20216;-77
2021/06/09 06:51:52;;;;;;;6.77;5.20;;;20.60;92.40;;;;;;4157479;28;20217;-75
2021/06/09 06:53:55;;;;;;;8.40;5.50;;;20.60;92.40;;;;;;4142721;28;20220;-76
2021/06/09 06:55:58;;;;;;;6.30;4.70;;;20.60;92.40;;;;;;4142557;28;20695;-75
2021/06/09 06:58:00;;;;;;;6.00;4.60;;;20.70;92.40;;;;;;4148698;28;20210;-76
2021/06/09 07:00:04;;;;;;;6.67;4.47;;;20.70;92.20;;;;;;4157760;28;20672;-76
2021/06/09 07:02:07;;;;;;;5.23;4.43;;;20.70;92.20;;;;;;4148310;28;20255;-75
2021/06/09 07:04:10;;;;;;;23.87;16.43;;;20.80;92.20;;;;;;4153507;28;20236;-78
2021/06/09 07:06:12;;;;;;;78.47;46.87;;;20.80;92.00;;;;;;4154838;28;20213;-77
2021/06/09 07:08:14;;;;;;;65.37;40.03;;;20.90;92.00;;;;;;4155299;28;20694;-75
2021/06/09 07:10:17;;;;;;;45.67;27.73;;;20.90;92.00;;;;;;4153697;28;20325;-75
2021/06/09 07:12:18;;;;;;;24.90;17.00;;;21.00;92.20;;;;;;4154793;28;20229;-76
2021/06/09 07:14:23;;;;;;;18.00;11.50;;;21.00;92.20;;;;;;4151625;28;20295;-76
2021/06/09 07:16:29;;;;;;;11.37;8.30;;;21.10;92.30;;;;;;4152075;28;20209;-76
2021/06/09 07:18:31;;;;;;;9.40;6.73;;;21.10;91.70;;;;;;4151688;28;20210;-76
2021/06/09 07:20:34;;;;;;;7.83;5.67;;;21.10;91.50;;;;;;4156605;28;20209;-76
2021/06/09 07:22:35;;;;;;;6.17;4.57;;;21.20;91.30;;;;;;4154638;28;20212;-77
2021/06/09 07:24:37;;;;;;;5.83;4.40;;;21.20;90.90;;;;;;4157471;28;20289;-77
2021/06/09 07:26:43;;;;;;;4.77;3.80;;;21.20;90.90;;;;;;4154612;28;20218;-76
2021/06/09 07:28:47;;;;;;;5.23;4.00;;;21.20;90.60;;;;;;4153736;28;20281;-76
2021/06/09 07:30:50;;;;;;;3.93;3.40;;;21.30;90.20;;;;;;4154643;28;20209;-76
2021/06/09 07:32:51;;;;;;;4.13;3.53;;;21.30;90.00;;;;;;4155168;28;20229;-76
2021/06/09 07:34:53;;;;;;;4.03;3.20;;;21.40;90.10;;;;;;4157269;28;20256;-75
2021/06/09 07:37:00;;;;;;;3.93;3.37;;;21.40;90.00;;;;;;4152943;28;20206;-75
2021/06/09 07:39:07;;;;;;;3.73;2.93;;;21.50;89.30;;;;;;4150736;28;20271;-75
2021/06/09 07:41:10;;;;;;;3.50;3.10;;;21.60;88.40;;;;;;4157671;28;20212;-75
2021/06/09 07:43:17;;;;;;;5.50;3.33;;;21.70;87.50;;;;;;4145426;28;20213;-76
2021/06/09 07:45:20;;;;;;;5.07;3.03;;;21.80;86.30;;;;;;4152896;28;20706;-75
2021/06/09 07:47:23;;;;;;;4.27;3.30;;;21.90;85.80;;;;;;4146674;28;20719;-75
2021/06/09 07:49:26;;;;;;;3.60;2.97;;;22.00;85.20;;;;;;4155018;28;20288;-76
2021/06/09 07:51:27;;;;;;;3.30;3.00;;;22.10;84.30;;;;;;4153702;28;20219;-73
2021/06/09 07:53:32;;;;;;;4.40;3.40;;;22.30;83.30;;;;;;4156353;28;20207;-76
2021/06/09 07:55:34;;;;;;;4.23;3.43;;;22.30;82.60;;;;;;4156138;28;20707;-76
2021/06/09 07:57:37;;;;;;;4.23;3.20;;;22.50;82.00;;;;;;4154265;28;20211;-73
2021/06/09 07:59:39;;;;;;;5.50;3.70;;;22.60;81.60;;;;;;4157924;28;20220;-76
2021/06/09 08:01:43;;;;;;;5.17;3.13;;;22.60;80.30;;;;;;4156550;28;20250;-73
2021/06/09 08:03:45;;;;;;;4.00;3.33;;;22.80;79.50;;;;;;4155903;28;20215;-76
2021/06/09 08:05:46;;;;;;;6.03;3.20;;;22.80;79.10;;;;;;4144592;28;20271;-75
2021/06/09 08:07:47;;;;;;;4.57;3.20;;;22.90;79.40;;;;;;4158039;28;20231;-73
2021/06/09 08:09:50;;;;;;;4.10;3.10;;;23.00;78.20;;;;;;4157233;28;20258;-73
2021/06/09 08:11:52;;;;;;;4.00;3.47;;;23.10;78.50;;;;;;4156925;28;20226;-73
2021/06/09 08:13:54;;;;;;;4.47;3.20;;;23.20;78.50;;;;;;4157448;28;20221;-73
2021/06/09 08:15:57;;;;;;;3.73;3.20;;;23.30;77.20;;;;;;4148699;28;20226;-73
2021/06/09 08:17:58;;;;;;;3.87;3.17;;;23.30;76.80;;;;;;4156682;28;20255;-73
2021/06/09 08:19:59;;;;;;;3.60;3.13;;;23.50;75.40;;;;;;4154425;28;20606;-73
2021/06/09 08:22:00;;;;;;;4.60;3.30;;;23.60;74.70;;;;;;4153254;28;20638;-73
2021/06/09 08:24:03;;;;;;;4.23;2.90;;;23.60;73.80;;;;;;4156101;28;20238;-73
2021/06/09 08:26:05;;;;;;;4.37;3.03;;;23.70;72.60;;;;;;4157185;28;20745;-73
2021/06/09 08:28:06;;;;;;;4.43;3.60;;;23.80;73.00;;;;;;4156752;28;20304;-73
2021/06/09 08:30:09;;;;;;;4.10;3.67;;;23.90;73.00;;;;;;4146904;28;20637;-73
2021/06/09 08:32:10;;;;;;;4.93;3.70;;;23.90;72.90;;;;;;4144344;28;20230;-73
2021/06/09 08:34:11;;;;;;;5.23;3.70;;;24.00;72.70;;;;;;4151997;28;20312;-73
2021/06/09 08:36:14;;;;;;;5.80;3.97;;;24.10;71.90;;;;;;4152800;28;20217;-73
2021/06/09 08:38:15;;;;;;;5.23;3.60;;;24.10;70.30;;;;;;4155549;28;20206;-73
2021/06/09 08:40:16;;;;;;;4.67;3.90;;;24.10;69.60;;;;;;4154737;28;20507;-75
2021/06/09 08:42:20;;;;;;;5.33;3.60;;;24.10;69.90;;;;;;4153566;28;20298;-75
2021/06/09 08:44:22;;;;;;;4.17;3.73;;;24.10;70.00;;;;;;4152103;28;20241;-73
2021/06/09 08:46:24;;;;;;;5.90;3.30;;;24.20;69.30;;;;;;4143458;28;20273;-73
2021/06/09 08:48:26;;;;;;;4.07;3.63;;;24.20;69.00;;;;;;4143478;28;20698;-73
2021/06/09 08:50:27;;;;;;;5.63;4.10;;;24.20;69.90;;;;;;4153574;28;20234;-73
2021/06/09 08:52:30;;;;;;;8.20;4.10;;;24.30;69.80;;;;;;4156325;28;20601;-73
2021/06/09 08:54:32;;;;;;;4.80;3.77;;;24.30;69.60;;;;;;4154753;28;20452;-74
2021/06/09 08:56:36;;;;;;;6.20;4.10;;;24.30;69.80;;;;;;4154785;28;20221;-74
2021/06/09 08:58:39;;;;;;;6.53;4.07;;;24.40;70.40;;;;;;4154486;28;20291;-74
2021/06/09 09:00:41;;;;;;;5.80;3.93;;;24.40;70.90;;;;;;4148603;28;20207;-74
2021/06/09 09:02:42;;;;;;;7.77;3.80;;;24.40;71.60;;;;;;4154454;28;20745;-74
2021/06/09 09:04:44;;;;;;;5.17;4.00;;;24.40;71.30;;;;;;4148311;28;20242;-74
2021/06/09 09:06:45;;;;;;;4.47;3.90;;;24.40;72.00;;;;;;4156270;28;20214;-74
2021/06/09 09:08:47;;;;;;;6.57;4.40;;;24.40;72.70;;;;;;4152237;28;20296;-76
2021/06/09 09:10:48;;;;;;;33.23;24.53;;;24.50;73.80;;;;;;4154273;28;20627;-75
2021/06/09 09:12:49;;;;;;;21.07;15.73;;;24.50;73.80;;;;;;4143764;28;20211;-75
2021/06/09 09:14:52;;;;;;;13.17;9.27;;;24.60;73.80;;;;;;4153797;28;20696;-75
2021/06/09 09:17:07;;;;;;;8.40;6.47;;;24.70;74.10;;;;;;4152639;28;20653;-75
2021/06/09 09:19:14;;;;;;;6.90;5.50;;;24.80;71.30;;;;;;4150651;28;20543;-75
2021/06/09 09:21:34;;;;;;;5.90;4.90;;;24.90;70.00;;;;;;4159848;28;20214;-75
2021/06/09 09:23:35;;;;;;;5.23;4.33;;;25.10;69.20;;;;;;4154501;28;20253;-75
2021/06/09 09:25:36;;;;;;;7.70;4.43;;;25.30;69.30;;;;;;4159622;28;20245;-75
2021/06/09 09:27:38;;;;;;;6.57;4.77;;;25.40;68.70;;;;;;4151364;28;20273;-75
2021/06/09 09:29:39;;;;;;;5.40;4.63;;;25.60;66.30;;;;;;4153011;28;20214;-73
2021/06/09 09:31:52;;;;;;;5.67;4.07;;;25.70;65.20;;;;;;4154257;28;20215;-75
2021/06/09 09:33:53;;;;;;;7.97;4.50;;;25.80;66.10;;;;;;4159005;28;20217;-73
2021/06/09 09:35:54;;;;;;;4.40;4.00;;;26.00;64.10;;;;;;4156935;28;20207;-76
2021/06/09 09:38:14;;;;;;;5.13;3.87;;;26.10;64.70;;;;;;4154043;28;20215;-76
2021/06/09 09:40:18;;;;;;;5.80;4.47;;;26.30;62.70;;;;;;4153756;28;20219;-76
2021/06/09 09:42:29;;;;;;;5.20;4.17;;;26.20;62.40;;;;;;4159277;28;20665;-75
2021/06/09 09:44:33;;;;;;;4.40;3.87;;;26.30;62.70;;;;;;4157693;28;20234;-75
2021/06/09 09:46:38;;;;;;;5.00;4.17;;;26.40;61.30;;;;;;4154694;28;20214;-76
2021/06/09 09:48:42;;;;;;;6.07;4.37;;;26.50;60.20;;;;;;4157402;28;20317;-74
2021/06/09 09:50:46;;;;;;;7.37;4.50;;;26.60;59.30;;;;;;4158705;28;20219;-73
2021/06/09 09:52:48;;;;;;;5.40;4.10;;;26.70;59.30;;;;;;4158368;28;20602;-74
2021/06/09 09:54:49;;;;;;;5.03;4.23;;;26.80;57.80;;;;;;4158064;28;20387;-74
2021/06/09 09:56:50;;;;;;;4.40;4.00;;;27.00;57.30;;;;;;4153671;28;20223;-76
2021/06/09 09:58:53;;;;;;;5.97;4.23;;;27.00;55.70;;;;;;4157971;28;20747;-71
2021/06/09 10:01:09;;;;;;;5.17;4.53;;;27.10;55.70;;;;;;4158144;28;20653;-73
2021/06/09 10:03:14;;;;;;;5.40;4.07;;;27.20;54.60;;;;;;4154269;28;20319;-75
2021/06/09 10:05:17;;;;;;;6.50;4.60;;;27.20;54.00;;;;;;4153831;28;20227;-75
2021/06/09 10:07:19;;;;;;;6.87;4.83;;;27.20;54.00;;;;;;4159297;28;20226;-74
2021/06/09 10:09:21;;;;;;;7.33;5.57;;;27.20;55.30;;;;;;4159234;28;20215;-74
2021/06/09 10:11:24;;;;;;;7.20;5.27;;;27.30;55.80;;;;;;4151187;28;20215;-77
2021/06/09 10:13:29;;;;;;;5.43;4.80;;;27.30;54.60;;;;;;4159957;28;20660;-77
2021/06/09 10:15:34;;;;;;;4.93;4.37;;;27.30;55.00;;;;;;4158151;28;20243;-80
2021/06/09 10:17:36;;;;;;;5.07;4.27;;;27.30;55.20;;;;;;4156224;28;20216;-79
2021/06/09 10:19:39;;;;;;;4.70;4.17;;;27.30;54.60;;;;;;4157853;28;20219;-75
2021/06/09 10:21:51;;;;;;;6.83;4.30;;;27.30;54.60;;;;;;4155189;28;20215;-75
2021/06/09 10:23:59;;;;;;;5.13;3.90;;;27.40;53.80;;;;;;4154404;28;20309;-80
2021/06/09 10:26:08;;;;;;;4.23;3.77;;;27.50;54.00;;;;;;4153247;28;20673;-73
2021/06/09 10:28:09;;;;;;;6.27;4.80;;;27.50;52.40;;;;;;4147737;28;20281;-73
2021/06/09 10:30:22;;;;;;;5.00;4.50;;;27.60;52.70;;;;;;4156264;28;20655;-73
2021/06/09 10:32:23;;;;;;;5.43;4.37;;;27.70;53.30;;;;;;4150553;28;20217;-74
2021/06/09 10:34:27;;;;;;;5.87;4.43;;;27.80;52.80;;;;;;4158291;28;20281;-73
2021/06/09 10:36:28;;;;;;;6.00;4.60;;;28.00;52.00;;;;;;4147692;28;20246;-73
2021/06/09 10:38:31;;;;;;;6.40;3.90;;;28.10;51.60;;;;;;4155559;28;20302;-74